sensor_id;sensor_type;location;lat;lon;timestamp;P1;durP1;ratioP1;P2;durP2;ratioP2
10471;SDS011;5283;48.876;8.962;2023-02-28T00:00:28;2.53;;;2.20;;
10471;SDS011;5283;48.876;8.962;2023-02-28T00:02:55;2.77;;;2.07;;
10471;SDS011;5283;48.876;8.962;2023-02-28T00:05:22;2.77;;;1.87;;
10471;SDS011;5283;48.876;8.962;2023-02-28T00:07:51;2.30;;;2.00;;
10471;SDS011;5283;48.876;8.962;2023-02-28T00:10:19;2.67;;;2.20;;
10471;SDS011;5283;48.876;8.962;2023-02-28T00:12:54;3.73;;;2.53;;
10471;SDS011;5283;48.876;8.962;2023-02-28T00:15:23;4.37;;;3.07;;
10471;SDS011;5283;48.876;8.962;2023-02-28T00:17:50;4.10;;;3.00;;
10471;SDS011;5283;48.876;8.962;2023-02-28T00:20:17;4.87;;;2.90;;
10471;SDS011;5283;48.876;8.962;2023-02-28T00:22:46;3.57;;;2.70;;
10471;SDS011;5283;48.876;8.962;2023-02-28T00:25:15;10.20;;;6.10;;
10471;SDS011;5283;48.876;8.962;2023-02-28T00:27:44;6.37;;;3.27;;
10471;SDS011;5283;48.876;8.962;2023-02-28T00:30:15;4.10;;;2.80;;
10471;SDS011;5283;48.876;8.962;2023-02-28T00:32:44;3.60;;;2.43;;
10471;SDS011;5283;48.876;8.962;2023-02-28T00:35:11;2.77;;;2.27;;
10471;SDS011;5283;48.876;8.962;2023-02-28T00:37:38;3.87;;;2.77;;
10471;SDS011;5283;48.876;8.962;2023-02-28T00:40:06;3.87;;;2.50;;
10471;SDS011;5283;48.876;8.962;2023-02-28T00:42:34;5.10;;;3.30;;
10471;SDS011;5283;48.876;8.962;2023-02-28T00:45:02;7.03;;;3.53;;
10471;SDS011;5283;48.876;8.962;2023-02-28T00:47:32;5.00;;;2.97;;
10471;SDS011;5283;48.876;8.962;2023-02-28T00:49:59;4.93;;;3.00;;
10471;SDS011;5283;48.876;8.962;2023-02-28T00:52:26;3.30;;;2.70;;
10471;SDS011;5283;48.876;8.962;2023-02-28T00:54:53;3.57;;;2.77;;
10471;SDS011;5283;48.876;8.962;2023-02-28T00:57:19;5.00;;;3.10;;
10471;SDS011;5283;48.876;8.962;2023-02-28T00:59:46;3.60;;;2.63;;
10471;SDS011;5283;48.876;8.962;2023-02-28T01:02:13;3.40;;;2.70;;
10471;SDS011;5283;48.876;8.962;2023-02-28T01:04:40;4.53;;;2.97;;
10471;SDS011;5283;48.876;8.962;2023-02-28T01:07:06;3.50;;;3.00;;
10471;SDS011;5283;48.876;8.962;2023-02-28T01:09:33;3.87;;;2.97;;
10471;SDS011;5283;48.876;8.962;2023-02-28T01:12:00;4.70;;;3.20;;
10471;SDS011;5283;48.876;8.962;2023-02-28T01:14:27;3.73;;;3.10;;
10471;SDS011;5283;48.876;8.962;2023-02-28T01:16:53;3.80;;;3.40;;
10471;SDS011;5283;48.876;8.962;2023-02-28T01:19:20;4.47;;;3.40;;
10471;SDS011;5283;48.876;8.962;2023-02-28T01:21:47;6.53;;;3.17;;
10471;SDS011;5283;48.876;8.962;2023-02-28T01:24:13;3.10;;;2.80;;
10471;SDS011;5283;48.876;8.962;2023-02-28T01:26:40;4.53;;;3.20;;
10471;SDS011;5283;48.876;8.962;2023-02-28T01:29:07;5.37;;;3.53;;
10471;SDS011;5283;48.876;8.962;2023-02-28T01:31:34;5.27;;;3.30;;
10471;SDS011;5283;48.876;8.962;2023-02-28T01:34:01;4.40;;;3.60;;
10471;SDS011;5283;48.876;8.962;2023-02-28T01:36:28;5.27;;;3.40;;
10471;SDS011;5283;48.876;8.962;2023-02-28T01:38:56;7.27;;;3.17;;
10471;SDS011;5283;48.876;8.962;2023-02-28T01:41:24;4.10;;;3.23;;
10471;SDS011;5283;48.876;8.962;2023-02-28T01:46:25;4.37;;;3.50;;
10471;SDS011;5283;48.876;8.962;2023-02-28T01:51:26;4.07;;;3.40;;
10471;SDS011;5283;48.876;8.962;2023-02-28T01:53:59;3.33;;;2.93;;
10471;SDS011;5283;48.876;8.962;2023-02-28T01:56:30;5.53;;;3.40;;
10471;SDS011;5283;48.876;8.962;2023-02-28T01:59:00;3.50;;;3.17;;
10471;SDS011;5283;48.876;8.962;2023-02-28T02:01:27;4.63;;;3.50;;
10471;SDS011;5283;48.876;8.962;2023-02-28T02:03:56;4.50;;;3.93;;
10471;SDS011;5283;48.876;8.962;2023-02-28T02:06:26;5.83;;;3.80;;
10471;SDS011;5283;48.876;8.962;2023-02-28T02:08:56;5.90;;;4.13;;
10471;SDS011;5283;48.876;8.962;2023-02-28T02:11:22;5.47;;;3.80;;
10471;SDS011;5283;48.876;8.962;2023-02-28T02:14:05;4.63;;;3.80;;
10471;SDS011;5283;48.876;8.962;2023-02-28T02:19:40;4.70;;;3.67;;
10471;SDS011;5283;48.876;8.962;2023-02-28T02:34:34;4.63;;;3.70;;
10471;SDS011;5283;48.876;8.962;2023-02-28T02:39:58;4.30;;;3.60;;
10471;SDS011;5283;48.876;8.962;2023-02-28T02:42:41;5.43;;;3.90;;
10471;SDS011;5283;48.876;8.962;2023-02-28T02:45:39;5.57;;;4.30;;
10471;SDS011;5283;48.876;8.962;2023-02-28T02:48:16;5.17;;;4.13;;
10471;SDS011;5283;48.876;8.962;2023-02-28T02:50:52;6.47;;;4.07;;
10471;SDS011;5283;48.876;8.962;2023-02-28T02:53:27;5.63;;;4.47;;
10471;SDS011;5283;48.876;8.962;2023-02-28T02:56:04;6.07;;;4.17;;
10471;SDS011;5283;48.876;8.962;2023-02-28T02:58:34;5.83;;;4.33;;
10471;SDS011;5283;48.876;8.962;2023-02-28T03:01:08;5.53;;;4.53;;
10471;SDS011;5283;48.876;8.962;2023-02-28T03:03:40;5.93;;;4.47;;
10471;SDS011;5283;48.876;8.962;2023-02-28T03:06:08;6.27;;;4.70;;
10471;SDS011;5283;48.876;8.962;2023-02-28T03:08:36;7.60;;;5.10;;
10471;SDS011;5283;48.876;8.962;2023-02-28T03:11:05;6.30;;;4.23;;
10471;SDS011;5283;48.876;8.962;2023-02-28T03:16:23;6.77;;;4.93;;
10471;SDS011;5283;48.876;8.962;2023-02-28T03:27:30;6.67;;;4.50;;
10471;SDS011;5283;48.876;8.962;2023-02-28T03:29:58;5.70;;;4.73;;
10471;SDS011;5283;48.876;8.962;2023-02-28T03:32:33;6.23;;;4.30;;
10471;SDS011;5283;48.876;8.962;2023-02-28T03:35:06;6.43;;;4.43;;
10471;SDS011;5283;48.876;8.962;2023-02-28T03:37:49;6.13;;;4.13;;
10471;SDS011;5283;48.876;8.962;2023-02-28T03:40:19;7.07;;;4.47;;
10471;SDS011;5283;48.876;8.962;2023-02-28T03:42:51;7.20;;;4.20;;
10471;SDS011;5283;48.876;8.962;2023-02-28T03:45:26;6.03;;;3.80;;
10471;SDS011;5283;48.876;8.962;2023-02-28T03:50:57;5.27;;;3.97;;
10471;SDS011;5283;48.876;8.962;2023-02-28T03:53:32;5.60;;;4.40;;
10471;SDS011;5283;48.876;8.962;2023-02-28T03:56:06;5.33;;;3.97;;
10471;SDS011;5283;48.876;8.962;2023-02-28T03:58:51;5.00;;;3.77;;
10471;SDS011;5283;48.876;8.962;2023-02-28T04:04:11;7.53;;;4.83;;
10471;SDS011;5283;48.876;8.962;2023-02-28T04:06:39;6.17;;;3.50;;
10471;SDS011;5283;48.876;8.962;2023-02-28T04:09:07;6.70;;;4.40;;
10471;SDS011;5283;48.876;8.962;2023-02-28T04:11:55;4.70;;;4.17;;
10471;SDS011;5283;48.876;8.962;2023-02-28T04:14:22;6.83;;;3.97;;
10471;SDS011;5283;48.876;8.962;2023-02-28T04:16:49;4.87;;;3.83;;
10471;SDS011;5283;48.876;8.962;2023-02-28T04:19:17;6.17;;;4.33;;
10471;SDS011;5283;48.876;8.962;2023-02-28T04:21:45;5.93;;;3.97;;
10471;SDS011;5283;48.876;8.962;2023-02-28T04:24:17;10.50;;;4.80;;
10471;SDS011;5283;48.876;8.962;2023-02-28T04:26:46;5.80;;;4.40;;
10471;SDS011;5283;48.876;8.962;2023-02-28T04:29:25;6.40;;;4.53;;
10471;SDS011;5283;48.876;8.962;2023-02-28T04:31:58;6.33;;;4.00;;
10471;SDS011;5283;48.876;8.962;2023-02-28T04:34:26;4.90;;;4.00;;
10471;SDS011;5283;48.876;8.962;2023-02-28T04:36:56;4.40;;;3.90;;
10471;SDS011;5283;48.876;8.962;2023-02-28T04:39:39;4.40;;;3.53;;
10471;SDS011;5283;48.876;8.962;2023-02-28T04:42:07;4.90;;;4.40;;
10471;SDS011;5283;48.876;8.962;2023-02-28T04:44:34;5.00;;;4.00;;
10471;SDS011;5283;48.876;8.962;2023-02-28T04:47:00;5.60;;;3.97;;
10471;SDS011;5283;48.876;8.962;2023-02-28T04:49:27;8.73;;;4.70;;
10471;SDS011;5283;48.876;8.962;2023-02-28T04:51:54;5.83;;;4.20;;
10471;SDS011;5283;48.876;8.962;2023-02-28T04:54:21;5.90;;;4.17;;
10471;SDS011;5283;48.876;8.962;2023-02-28T04:56:48;6.80;;;4.70;;
10471;SDS011;5283;48.876;8.962;2023-02-28T04:59:15;6.10;;;4.27;;
10471;SDS011;5283;48.876;8.962;2023-02-28T05:01:46;6.10;;;4.10;;
10471;SDS011;5283;48.876;8.962;2023-02-28T05:04:14;5.23;;;4.07;;
10471;SDS011;5283;48.876;8.962;2023-02-28T05:06:41;6.37;;;4.47;;
10471;SDS011;5283;48.876;8.962;2023-02-28T05:09:08;6.10;;;4.60;;
10471;SDS011;5283;48.876;8.962;2023-02-28T05:11:37;6.30;;;4.47;;
10471;SDS011;5283;48.876;8.962;2023-02-28T05:14:06;4.60;;;4.00;;
10471;SDS011;5283;48.876;8.962;2023-02-28T05:16:37;5.70;;;4.20;;
10471;SDS011;5283;48.876;8.962;2023-02-28T05:19:04;8.30;;;4.50;;
10471;SDS011;5283;48.876;8.962;2023-02-28T05:21:32;6.03;;;4.67;;
10471;SDS011;5283;48.876;8.962;2023-02-28T05:24:01;4.83;;;4.10;;
10471;SDS011;5283;48.876;8.962;2023-02-28T05:26:30;6.00;;;4.60;;
10471;SDS011;5283;48.876;8.962;2023-02-28T05:28:57;6.73;;;4.63;;
10471;SDS011;5283;48.876;8.962;2023-02-28T05:31:24;5.53;;;4.50;;
10471;SDS011;5283;48.876;8.962;2023-02-28T05:33:51;5.27;;;4.77;;
10471;SDS011;5283;48.876;8.962;2023-02-28T05:36:18;6.60;;;4.90;;
10471;SDS011;5283;48.876;8.962;2023-02-28T05:38:46;8.10;;;5.00;;
10471;SDS011;5283;48.876;8.962;2023-02-28T05:41:14;6.03;;;4.57;;
10471;SDS011;5283;48.876;8.962;2023-02-28T05:43:41;7.43;;;4.53;;
10471;SDS011;5283;48.876;8.962;2023-02-28T05:46:08;5.87;;;4.83;;
10471;SDS011;5283;48.876;8.962;2023-02-28T05:48:37;6.73;;;4.70;;
10471;SDS011;5283;48.876;8.962;2023-02-28T05:51:05;6.63;;;4.63;;
10471;SDS011;5283;48.876;8.962;2023-02-28T05:53:33;5.23;;;4.33;;
10471;SDS011;5283;48.876;8.962;2023-02-28T05:56:00;5.63;;;4.57;;
10471;SDS011;5283;48.876;8.962;2023-02-28T05:58:27;6.43;;;4.53;;
10471;SDS011;5283;48.876;8.962;2023-02-28T06:00:57;5.40;;;4.20;;
10471;SDS011;5283;48.876;8.962;2023-02-28T06:03:25;6.00;;;4.43;;
10471;SDS011;5283;48.876;8.962;2023-02-28T06:05:52;5.10;;;3.50;;
10471;SDS011;5283;48.876;8.962;2023-02-28T06:08:19;6.53;;;4.63;;
10471;SDS011;5283;48.876;8.962;2023-02-28T06:10:46;6.53;;;3.90;;
10471;SDS011;5283;48.876;8.962;2023-02-28T06:13:13;8.50;;;5.03;;
10471;SDS011;5283;48.876;8.962;2023-02-28T06:15:41;4.87;;;3.63;;
10471;SDS011;5283;48.876;8.962;2023-02-28T06:18:08;5.03;;;3.83;;
10471;SDS011;5283;48.876;8.962;2023-02-28T06:20:34;7.60;;;4.73;;
10471;SDS011;5283;48.876;8.962;2023-02-28T06:23:02;6.27;;;4.83;;
10471;SDS011;5283;48.876;8.962;2023-02-28T06:25:29;6.77;;;4.70;;
10471;SDS011;5283;48.876;8.962;2023-02-28T06:27:56;5.53;;;4.53;;
10471;SDS011;5283;48.876;8.962;2023-02-28T06:30:23;6.80;;;4.87;;
10471;SDS011;5283;48.876;8.962;2023-02-28T06:32:53;5.67;;;4.63;;
10471;SDS011;5283;48.876;8.962;2023-02-28T06:35:20;6.57;;;4.90;;
10471;SDS011;5283;48.876;8.962;2023-02-28T06:37:47;9.47;;;5.80;;
10471;SDS011;5283;48.876;8.962;2023-02-28T06:40:14;7.90;;;4.93;;
10471;SDS011;5283;48.876;8.962;2023-02-28T06:42:41;7.17;;;4.80;;
10471;SDS011;5283;48.876;8.962;2023-02-28T06:45:09;7.30;;;5.00;;
10471;SDS011;5283;48.876;8.962;2023-02-28T06:47:37;9.20;;;6.23;;
10471;SDS011;5283;48.876;8.962;2023-02-28T06:50:05;6.37;;;4.90;;
10471;SDS011;5283;48.876;8.962;2023-02-28T06:52:33;6.33;;;4.63;;
10471;SDS011;5283;48.876;8.962;2023-02-28T06:55:03;8.13;;;4.90;;
10471;SDS011;5283;48.876;8.962;2023-02-28T06:57:31;6.70;;;4.97;;
10471;SDS011;5283;48.876;8.962;2023-02-28T06:59:59;7.80;;;5.17;;
10471;SDS011;5283;48.876;8.962;2023-02-28T07:02:27;6.97;;;4.80;;
10471;SDS011;5283;48.876;8.962;2023-02-28T07:04:54;7.87;;;5.63;;
10471;SDS011;5283;48.876;8.962;2023-02-28T07:07:21;8.50;;;3.57;;
10471;SDS011;5283;48.876;8.962;2023-02-28T07:09:48;7.67;;;4.60;;
10471;SDS011;5283;48.876;8.962;2023-02-28T07:12:14;5.50;;;4.23;;
10471;SDS011;5283;48.876;8.962;2023-02-28T07:14:41;6.20;;;4.50;;
10471;SDS011;5283;48.876;8.962;2023-02-28T07:17:08;6.30;;;4.60;;
10471;SDS011;5283;48.876;8.962;2023-02-28T07:19:38;6.93;;;5.13;;
10471;SDS011;5283;48.876;8.962;2023-02-28T07:22:05;9.63;;;5.60;;
10471;SDS011;5283;48.876;8.962;2023-02-28T07:24:32;10.37;;;4.90;;
10471;SDS011;5283;48.876;8.962;2023-02-28T07:26:59;6.87;;;5.07;;
10471;SDS011;5283;48.876;8.962;2023-02-28T07:29:27;7.00;;;4.80;;
10471;SDS011;5283;48.876;8.962;2023-02-28T07:31:54;7.73;;;5.30;;
10471;SDS011;5283;48.876;8.962;2023-02-28T07:34:20;7.50;;;5.10;;
10471;SDS011;5283;48.876;8.962;2023-02-28T07:36:48;7.23;;;5.30;;
10471;SDS011;5283;48.876;8.962;2023-02-28T07:39:15;8.53;;;4.87;;
10471;SDS011;5283;48.876;8.962;2023-02-28T07:41:42;9.57;;;5.43;;
10471;SDS011;5283;48.876;8.962;2023-02-28T07:44:10;7.00;;;5.23;;
10471;SDS011;5283;48.876;8.962;2023-02-28T07:46:37;10.70;;;5.67;;
10471;SDS011;5283;48.876;8.962;2023-02-28T07:49:04;7.67;;;5.10;;
10471;SDS011;5283;48.876;8.962;2023-02-28T07:51:31;5.73;;;4.00;;
10471;SDS011;5283;48.876;8.962;2023-02-28T07:53:59;8.27;;;5.00;;
10471;SDS011;5283;48.876;8.962;2023-02-28T07:56:25;8.07;;;5.33;;
10471;SDS011;5283;48.876;8.962;2023-02-28T07:58:53;5.37;;;4.70;;
10471;SDS011;5283;48.876;8.962;2023-02-28T08:01:19;7.10;;;4.73;;
10471;SDS011;5283;48.876;8.962;2023-02-28T08:03:46;5.97;;;4.10;;
10471;SDS011;5283;48.876;8.962;2023-02-28T08:06:18;6.90;;;5.40;;
10471;SDS011;5283;48.876;8.962;2023-02-28T08:08:46;7.13;;;5.63;;
10471;SDS011;5283;48.876;8.962;2023-02-28T08:11:14;7.67;;;5.00;;
10471;SDS011;5283;48.876;8.962;2023-02-28T08:13:42;7.80;;;5.20;;
10471;SDS011;5283;48.876;8.962;2023-02-28T08:16:10;7.37;;;4.80;;
10471;SDS011;5283;48.876;8.962;2023-02-28T08:18:40;7.40;;;5.27;;
10471;SDS011;5283;48.876;8.962;2023-02-28T08:21:07;6.93;;;4.67;;
10471;SDS011;5283;48.876;8.962;2023-02-28T08:23:35;6.47;;;5.23;;
10471;SDS011;5283;48.876;8.962;2023-02-28T08:26:02;7.73;;;5.20;;
10471;SDS011;5283;48.876;8.962;2023-02-28T08:28:30;7.60;;;5.33;;
10471;SDS011;5283;48.876;8.962;2023-02-28T08:30:57;7.20;;;5.43;;
10471;SDS011;5283;48.876;8.962;2023-02-28T08:33:24;7.30;;;5.73;;
10471;SDS011;5283;48.876;8.962;2023-02-28T08:35:55;6.37;;;5.47;;
10471;SDS011;5283;48.876;8.962;2023-02-28T08:38:22;8.53;;;5.60;;
10471;SDS011;5283;48.876;8.962;2023-02-28T08:40:50;7.53;;;5.87;;
10471;SDS011;5283;48.876;8.962;2023-02-28T08:43:23;8.20;;;5.40;;
10471;SDS011;5283;48.876;8.962;2023-02-28T08:45:53;7.70;;;5.60;;
10471;SDS011;5283;48.876;8.962;2023-02-28T08:48:20;7.63;;;5.37;;
10471;SDS011;5283;48.876;8.962;2023-02-28T08:53:32;9.70;;;5.90;;
10471;SDS011;5283;48.876;8.962;2023-02-28T08:56:05;6.40;;;4.87;;
10471;SDS011;5283;48.876;8.962;2023-02-28T08:58:34;8.23;;;5.20;;
10471;SDS011;5283;48.876;8.962;2023-02-28T09:01:07;10.17;;;4.90;;
10471;SDS011;5283;48.876;8.962;2023-02-28T09:03:39;9.73;;;6.10;;
10471;SDS011;5283;48.876;8.962;2023-02-28T09:06:08;6.43;;;5.77;;
10471;SDS011;5283;48.876;8.962;2023-02-28T09:08:35;8.07;;;6.33;;
10471;SDS011;5283;48.876;8.962;2023-02-28T09:11:02;6.00;;;5.20;;
10471;SDS011;5283;48.876;8.962;2023-02-28T09:13:29;7.67;;;5.83;;
10471;SDS011;5283;48.876;8.962;2023-02-28T09:16:00;7.73;;;6.77;;
10471;SDS011;5283;48.876;8.962;2023-02-28T09:18:28;7.60;;;5.87;;
10471;SDS011;5283;48.876;8.962;2023-02-28T09:20:56;7.77;;;5.60;;
10471;SDS011;5283;48.876;8.962;2023-02-28T09:23:24;6.33;;;5.20;;
10471;SDS011;5283;48.876;8.962;2023-02-28T09:25:52;10.17;;;6.43;;
10471;SDS011;5283;48.876;8.962;2023-02-28T09:28:20;7.43;;;6.17;;
10471;SDS011;5283;48.876;8.962;2023-02-28T09:30:49;8.57;;;6.50;;
10471;SDS011;5283;48.876;8.962;2023-02-28T09:33:17;9.03;;;6.77;;
10471;SDS011;5283;48.876;8.962;2023-02-28T09:35:47;8.43;;;6.50;;
10471;SDS011;5283;48.876;8.962;2023-02-28T09:38:15;8.20;;;6.20;;
10471;SDS011;5283;48.876;8.962;2023-02-28T09:43:12;12.60;;;6.67;;
10471;SDS011;5283;48.876;8.962;2023-02-28T09:45:42;9.00;;;6.40;;
10471;SDS011;5283;48.876;8.962;2023-02-28T09:48:18;8.53;;;6.20;;
10471;SDS011;5283;48.876;8.962;2023-02-28T09:51:04;7.10;;;5.63;;
10471;SDS011;5283;48.876;8.962;2023-02-28T09:53:37;7.53;;;5.57;;
10471;SDS011;5283;48.876;8.962;2023-02-28T09:56:09;8.70;;;6.83;;
10471;SDS011;5283;48.876;8.962;2023-02-28T09:58:54;6.83;;;5.57;;
10471;SDS011;5283;48.876;8.962;2023-02-28T10:06:49;7.37;;;5.93;;
10471;SDS011;5283;48.876;8.962;2023-02-28T10:09:18;9.07;;;7.07;;
10471;SDS011;5283;48.876;8.962;2023-02-28T10:11:51;7.03;;;5.73;;
10471;SDS011;5283;48.876;8.962;2023-02-28T10:14:24;8.33;;;5.43;;
10471;SDS011;5283;48.876;8.962;2023-02-28T10:17:11;9.30;;;6.70;;
10471;SDS011;5283;48.876;8.962;2023-02-28T10:19:46;8.23;;;6.40;;
10471;SDS011;5283;48.876;8.962;2023-02-28T10:22:27;8.43;;;6.53;;
10471;SDS011;5283;48.876;8.962;2023-02-28T10:25:16;8.97;;;6.30;;
10471;SDS011;5283;48.876;8.962;2023-02-28T10:27:48;7.97;;;5.87;;
10471;SDS011;5283;48.876;8.962;2023-02-28T10:30:16;8.20;;;6.00;;
10471;SDS011;5283;48.876;8.962;2023-02-28T10:32:45;9.23;;;6.67;;
10471;SDS011;5283;48.876;8.962;2023-02-28T10:37:54;8.63;;;6.83;;
10471;SDS011;5283;48.876;8.962;2023-02-28T10:40:33;12.37;;;7.70;;
10471;SDS011;5283;48.876;8.962;2023-02-28T10:43:04;7.47;;;6.13;;
10471;SDS011;5283;48.876;8.962;2023-02-28T10:46:01;8.27;;;5.53;;
10471;SDS011;5283;48.876;8.962;2023-02-28T10:51:26;7.90;;;6.40;;
10471;SDS011;5283;48.876;8.962;2023-02-28T10:54:02;8.17;;;6.67;;
10471;SDS011;5283;48.876;8.962;2023-02-28T10:56:29;7.53;;;5.80;;
10471;SDS011;5283;48.876;8.962;2023-02-28T10:58:58;8.27;;;6.63;;
10471;SDS011;5283;48.876;8.962;2023-02-28T11:01:48;8.07;;;6.30;;
10471;SDS011;5283;48.876;8.962;2023-02-28T11:06:59;8.87;;;6.37;;
10471;SDS011;5283;48.876;8.962;2023-02-28T11:09:45;10.20;;;6.40;;
10471;SDS011;5283;48.876;8.962;2023-02-28T11:12:49;9.17;;;6.80;;
10471;SDS011;5283;48.876;8.962;2023-02-28T11:17:56;7.30;;;6.27;;
10471;SDS011;5283;48.876;8.962;2023-02-28T11:20:26;11.07;;;6.47;;
10471;SDS011;5283;48.876;8.962;2023-02-28T11:22:58;10.40;;;6.40;;
10471;SDS011;5283;48.876;8.962;2023-02-28T11:25:35;7.90;;;6.57;;
10471;SDS011;5283;48.876;8.962;2023-02-28T11:28:05;10.20;;;7.33;;
10471;SDS011;5283;48.876;8.962;2023-02-28T11:30:59;9.50;;;7.40;;
10471;SDS011;5283;48.876;8.962;2023-02-28T11:33:29;8.80;;;7.00;;
10471;SDS011;5283;48.876;8.962;2023-02-28T11:36:31;7.93;;;6.43;;
10471;SDS011;5283;48.876;8.962;2023-02-28T11:38:51;7.63;;;6.17;;
10471;SDS011;5283;48.876;8.962;2023-02-28T12:03:14;7.83;;;6.60;;
10471;SDS011;5283;48.876;8.962;2023-02-28T12:06:33;8.50;;;6.47;;
10471;SDS011;5283;48.876;8.962;2023-02-28T12:28:46;8.33;;;6.30;;
10471;SDS011;5283;48.876;8.962;2023-02-28T12:31:18;10.13;;;7.10;;
10471;SDS011;5283;48.876;8.962;2023-02-28T12:34:03;8.40;;;6.30;;
10471;SDS011;5283;48.876;8.962;2023-02-28T12:36:38;7.23;;;6.50;;
10471;SDS011;5283;48.876;8.962;2023-02-28T12:39:12;8.20;;;6.17;;
10471;SDS011;5283;48.876;8.962;2023-02-28T12:41:46;7.30;;;5.90;;
10471;SDS011;5283;48.876;8.962;2023-02-28T12:44:30;7.57;;;6.63;;
10471;SDS011;5283;48.876;8.962;2023-02-28T12:47:03;8.10;;;6.60;;
10471;SDS011;5283;48.876;8.962;2023-02-28T12:49:38;7.90;;;6.90;;
10471;SDS011;5283;48.876;8.962;2023-02-28T12:52:13;7.10;;;6.00;;
10471;SDS011;5283;48.876;8.962;2023-02-28T12:55:27;7.97;;;6.40;;
10471;SDS011;5283;48.876;8.962;2023-02-28T12:57:40;8.37;;;6.33;;
10471;SDS011;5283;48.876;8.962;2023-02-28T13:00:13;8.00;;;6.77;;
10471;SDS011;5283;48.876;8.962;2023-02-28T13:08:17;8.07;;;5.80;;
10471;SDS011;5283;48.876;8.962;2023-02-28T13:11:07;8.20;;;5.93;;
10471;SDS011;5283;48.876;8.962;2023-02-28T13:13:46;10.63;;;6.47;;
10471;SDS011;5283;48.876;8.962;2023-02-28T13:16:13;7.73;;;6.50;;
10471;SDS011;5283;48.876;8.962;2023-02-28T13:18:42;7.63;;;5.90;;
10471;SDS011;5283;48.876;8.962;2023-02-28T13:21:29;7.83;;;6.20;;
10471;SDS011;5283;48.876;8.962;2023-02-28T13:23:58;8.03;;;6.80;;
10471;SDS011;5283;48.876;8.962;2023-02-28T13:29:00;9.20;;;7.23;;
10471;SDS011;5283;48.876;8.962;2023-02-28T13:31:30;8.17;;;6.63;;
10471;SDS011;5283;48.876;8.962;2023-02-28T13:34:12;9.70;;;6.93;;
10471;SDS011;5283;48.876;8.962;2023-02-28T13:36:41;8.20;;;6.00;;
10471;SDS011;5283;48.876;8.962;2023-02-28T13:45:25;6.60;;;4.90;;
10471;SDS011;5283;48.876;8.962;2023-02-28T13:48:03;9.07;;;6.37;;
10471;SDS011;5283;48.876;8.962;2023-02-28T13:50:43;7.33;;;6.13;;
10471;SDS011;5283;48.876;8.962;2023-02-28T14:01:16;9.63;;;6.40;;
10471;SDS011;5283;48.876;8.962;2023-02-28T14:07:16;12.13;;;7.83;;
10471;SDS011;5283;48.876;8.962;2023-02-28T14:09:50;7.20;;;6.00;;
10471;SDS011;5283;48.876;8.962;2023-02-28T14:17:55;7.07;;;6.17;;
10471;SDS011;5283;48.876;8.962;2023-02-28T14:20:22;7.70;;;6.80;;
10471;SDS011;5283;48.876;8.962;2023-02-28T14:29:11;7.70;;;6.63;;
10471;SDS011;5283;48.876;8.962;2023-02-28T14:31:43;7.40;;;6.57;;
10471;SDS011;5283;48.876;8.962;2023-02-28T14:34:37;10.10;;;7.07;;
10471;SDS011;5283;48.876;8.962;2023-02-28T14:37:28;7.90;;;6.40;;
10471;SDS011;5283;48.876;8.962;2023-02-28T14:39:58;8.60;;;7.10;;
10471;SDS011;5283;48.876;8.962;2023-02-28T14:42:27;8.20;;;7.07;;
10471;SDS011;5283;48.876;8.962;2023-02-28T14:44:56;7.37;;;6.57;;
10471;SDS011;5283;48.876;8.962;2023-02-28T14:47:25;10.73;;;6.70;;
10471;SDS011;5283;48.876;8.962;2023-02-28T14:49:58;9.53;;;6.90;;
10471;SDS011;5283;48.876;8.962;2023-02-28T14:52:27;10.93;;;7.00;;
10471;SDS011;5283;48.876;8.962;2023-02-28T14:55:03;7.93;;;6.27;;
10471;SDS011;5283;48.876;8.962;2023-02-28T14:57:34;8.73;;;6.20;;
10471;SDS011;5283;48.876;8.962;2023-02-28T15:02:39;12.83;;;6.90;;
10471;SDS011;5283;48.876;8.962;2023-02-28T15:07:43;9.47;;;7.10;;
10471;SDS011;5283;48.876;8.962;2023-02-28T15:10:21;9.47;;;7.07;;
10471;SDS011;5283;48.876;8.962;2023-02-28T15:13:00;8.87;;;6.50;;
10471;SDS011;5283;48.876;8.962;2023-02-28T15:15:44;8.50;;;6.63;;
10471;SDS011;5283;48.876;8.962;2023-02-28T15:21:44;9.27;;;7.47;;
10471;SDS011;5283;48.876;8.962;2023-02-28T15:23:55;10.27;;;7.53;;
10471;SDS011;5283;48.876;8.962;2023-02-28T15:26:39;8.03;;;6.60;;
10471;SDS011;5283;48.876;8.962;2023-02-28T15:29:11;7.90;;;7.03;;
10471;SDS011;5283;48.876;8.962;2023-02-28T15:31:45;10.00;;;6.93;;
10471;SDS011;5283;48.876;8.962;2023-02-28T15:34:27;9.40;;;7.90;;
10471;SDS011;5283;48.876;8.962;2023-02-28T15:40:05;8.37;;;7.20;;
10471;SDS011;5283;48.876;8.962;2023-02-28T15:42:40;7.73;;;6.80;;
10471;SDS011;5283;48.876;8.962;2023-02-28T15:45:30;8.97;;;6.93;;
10471;SDS011;5283;48.876;8.962;2023-02-28T15:48:04;8.77;;;7.00;;
10471;SDS011;5283;48.876;8.962;2023-02-28T15:50:39;10.37;;;7.17;;
10471;SDS011;5283;48.876;8.962;2023-02-28T15:53:12;10.60;;;6.97;;
10471;SDS011;5283;48.876;8.962;2023-02-28T15:55:40;13.07;;;7.43;;
10471;SDS011;5283;48.876;8.962;2023-02-28T15:58:08;10.03;;;7.33;;
10471;SDS011;5283;48.876;8.962;2023-02-28T16:00:38;10.07;;;7.60;;
10471;SDS011;5283;48.876;8.962;2023-02-28T16:03:27;9.93;;;7.73;;
10471;SDS011;5283;48.876;8.962;2023-02-28T16:06:28;8.40;;;7.40;;
10471;SDS011;5283;48.876;8.962;2023-02-28T16:08:48;11.77;;;8.90;;
10471;SDS011;5283;48.876;8.962;2023-02-28T16:11:17;7.70;;;6.53;;
10471;SDS011;5283;48.876;8.962;2023-02-28T16:13:46;8.57;;;7.67;;
10471;SDS011;5283;48.876;8.962;2023-02-28T16:16:21;9.30;;;7.90;;
10471;SDS011;5283;48.876;8.962;2023-02-28T16:18:50;9.63;;;7.60;;
10471;SDS011;5283;48.876;8.962;2023-02-28T16:21:17;9.63;;;7.97;;
10471;SDS011;5283;48.876;8.962;2023-02-28T16:23:44;8.40;;;7.50;;
10471;SDS011;5283;48.876;8.962;2023-02-28T16:26:21;9.40;;;7.83;;
10471;SDS011;5283;48.876;8.962;2023-02-28T16:28:50;10.10;;;8.07;;
10471;SDS011;5283;48.876;8.962;2023-02-28T16:31:17;9.93;;;7.83;;
10471;SDS011;5283;48.876;8.962;2023-02-28T16:33:45;9.33;;;7.17;;
10471;SDS011;5283;48.876;8.962;2023-02-28T16:36:13;9.10;;;7.27;;
10471;SDS011;5283;48.876;8.962;2023-02-28T16:38:41;10.10;;;7.67;;
10471;SDS011;5283;48.876;8.962;2023-02-28T16:41:08;9.40;;;8.23;;
10471;SDS011;5283;48.876;8.962;2023-02-28T16:43:43;7.80;;;6.50;;
10471;SDS011;5283;48.876;8.962;2023-02-28T16:46:11;10.47;;;7.93;;
10471;SDS011;5283;48.876;8.962;2023-02-28T16:48:39;9.20;;;7.23;;
10471;SDS011;5283;48.876;8.962;2023-02-28T16:51:13;10.80;;;7.93;;
10471;SDS011;5283;48.876;8.962;2023-02-28T16:53:44;8.70;;;7.73;;
10471;SDS011;5283;48.876;8.962;2023-02-28T16:56:14;10.27;;;7.73;;
10471;SDS011;5283;48.876;8.962;2023-02-28T16:58:43;9.40;;;7.60;;
10471;SDS011;5283;48.876;8.962;2023-02-28T17:01:11;10.03;;;7.67;;
10471;SDS011;5283;48.876;8.962;2023-02-28T17:03:38;15.33;;;10.40;;
10471;SDS011;5283;48.876;8.962;2023-02-28T17:06:10;13.37;;;9.73;;
10471;SDS011;5283;48.876;8.962;2023-02-28T17:08:44;16.13;;;10.20;;
10471;SDS011;5283;48.876;8.962;2023-02-28T17:11:10;9.87;;;7.97;;
10471;SDS011;5283;48.876;8.962;2023-02-28T17:13:37;9.43;;;7.37;;
10471;SDS011;5283;48.876;8.962;2023-02-28T17:16:04;9.33;;;7.17;;
10471;SDS011;5283;48.876;8.962;2023-02-28T17:18:31;9.53;;;8.00;;
10471;SDS011;5283;48.876;8.962;2023-02-28T17:21:00;11.00;;;8.40;;
10471;SDS011;5283;48.876;8.962;2023-02-28T17:23:27;10.97;;;7.83;;
10471;SDS011;5283;48.876;8.962;2023-02-28T17:25:54;11.80;;;8.57;;
10471;SDS011;5283;48.876;8.962;2023-02-28T17:28:23;12.50;;;9.40;;
10471;SDS011;5283;48.876;8.962;2023-02-28T17:30:50;10.70;;;8.60;;
10471;SDS011;5283;48.876;8.962;2023-02-28T17:33:17;9.10;;;7.60;;
10471;SDS011;5283;48.876;8.962;2023-02-28T17:35:43;10.20;;;8.00;;
10471;SDS011;5283;48.876;8.962;2023-02-28T17:38:17;9.60;;;7.87;;
10471;SDS011;5283;48.876;8.962;2023-02-28T17:40:45;11.57;;;8.00;;
10471;SDS011;5283;48.876;8.962;2023-02-28T17:43:12;10.30;;;8.50;;
10471;SDS011;5283;48.876;8.962;2023-02-28T17:45:38;12.73;;;8.70;;
10471;SDS011;5283;48.876;8.962;2023-02-28T17:48:05;13.77;;;8.43;;
10471;SDS011;5283;48.876;8.962;2023-02-28T17:50:32;13.17;;;9.27;;
10471;SDS011;5283;48.876;8.962;2023-02-28T17:52:59;10.80;;;9.27;;
10471;SDS011;5283;48.876;8.962;2023-02-28T17:55:26;12.07;;;10.03;;